Providence, Rhode Island
Traffic Map
Current Weather Conditions
Providence, Rhode Island
Broken Clouds
Broken Clouds
74°
Feels Like: 74°
Wind Chill: 74° Ceiling: 25000
Heat Index: 74° Visibility: 10mi
Dew Point: 60° Wind: 6mph
Humidity: 62% Direction: 10° (N)
Pressure: 30.16in Gusts: 0mph
Raw Report DataKPVD 271151Z 01005KT 10SM BKN250 23/16 A3016 RMK AO2 SLP213 T02330156 10239 20206 51022
Traffic Incident Summary
Active as of:
Severity:
Category:
InformationThere was an issue retrieving the traffic information for this location. Please try a different location or try again shortly.
Advertisements
Track Severe Weather on mobile